sensor_id;sensor_type;location;lat;lon;timestamp;pressure;altitude;pressure_sealevel;temperature;humidity
47761;BME280;33524;55.434;38.520;2023-08-06T00:00:27;100568.19;;;19.29;79.49
47761;BME280;33524;55.434;38.520;2023-08-06T00:02:56;100568.87;;;19.39;78.28
47761;BME280;33524;55.434;38.520;2023-08-06T00:05:24;100576.22;;;19.37;80.14
47761;BME280;33524;55.434;38.520;2023-08-06T00:07:52;100569.16;;;19.28;78.72
47761;BME280;33524;55.434;38.520;2023-08-06T00:10:20;100571.66;;;19.21;79.77
47761;BME280;33524;55.434;38.520;2023-08-06T00:12:48;100573.00;;;19.25;80.65
47761;BME280;33524;55.434;38.520;2023-08-06T00:15:16;100561.81;;;19.13;80.36
47761;BME280;33524;55.434;38.520;2023-08-06T00:17:44;100567.97;;;19.22;81.65
47761;BME280;33524;55.434;38.520;2023-08-06T00:20:15;100563.00;;;19.19;80.06
47761;BME280;33524;55.434;38.520;2023-08-06T00:22:43;100574.94;;;18.99;80.58
47761;BME280;33524;55.434;38.520;2023-08-06T00:25:11;100565.22;;;18.81;85.50
47761;BME280;33524;55.434;38.520;2023-08-06T00:27:39;100573.03;;;18.83;84.92
47761;BME280;33524;55.434;38.520;2023-08-06T00:30:07;100577.78;;;19.05;80.63
47761;BME280;33524;55.434;38.520;2023-08-06T00:32:36;100570.19;;;19.27;78.37
47761;BME280;33524;55.434;38.520;2023-08-06T00:35:04;100575.25;;;19.04;83.25
47761;BME280;33524;55.434;38.520;2023-08-06T00:37:32;100574.66;;;19.26;76.66
47761;BME280;33524;55.434;38.520;2023-08-06T00:40:00;100577.59;;;18.99;83.91
47761;BME280;33524;55.434;38.520;2023-08-06T00:42:29;100580.88;;;18.84;85.17
47761;BME280;33524;55.434;38.520;2023-08-06T00:44:57;100578.63;;;18.71;85.46
47761;BME280;33524;55.434;38.520;2023-08-06T00:47:25;100583.31;;;18.78;82.31
47761;BME280;33524;55.434;38.520;2023-08-06T00:49:54;100586.47;;;18.73;85.93
47761;BME280;33524;55.434;38.520;2023-08-06T00:52:22;100587.38;;;18.82;80.92
47761;BME280;33524;55.434;38.520;2023-08-06T00:54:51;100581.72;;;18.93;79.75
47761;BME280;33524;55.434;38.520;2023-08-06T00:57:20;100575.87;;;18.81;81.02
47761;BME280;33524;55.434;38.520;2023-08-06T00:59:50;100581.22;;;18.81;80.16
47761;BME280;33524;55.434;38.520;2023-08-06T01:02:18;100582.91;;;18.64;85.91
47761;BME280;33524;55.434;38.520;2023-08-06T01:04:46;100578.59;;;18.63;83.35
47761;BME280;33524;55.434;38.520;2023-08-06T01:07:53;100578.69;;;18.80;82.19
47761;BME280;33524;55.434;38.520;2023-08-06T01:10:40;100583.38;;;18.60;84.16
47761;BME280;33524;55.434;38.520;2023-08-06T01:13:44;100585.06;;;18.61;85.91
47761;BME280;33524;55.434;38.520;2023-08-06T01:16:18;100587.78;;;18.69;79.24
47761;BME280;33524;55.434;38.520;2023-08-06T01:18:48;100590.75;;;18.66;83.38
47761;BME280;33524;55.434;38.520;2023-08-06T01:21:18;100599.22;;;18.61;84.55
47761;BME280;33524;55.434;38.520;2023-08-06T01:23:47;100605.12;;;18.73;79.85
47761;BME280;33524;55.434;38.520;2023-08-06T01:27:03;100596.72;;;18.86;80.72
47761;BME280;33524;55.434;38.520;2023-08-06T01:29:35;100599.13;;;18.71;79.25
47761;BME280;33524;55.434;38.520;2023-08-06T01:32:10;100598.81;;;18.48;87.04
47761;BME280;33524;55.434;38.520;2023-08-06T01:34:41;100605.03;;;18.57;84.67
47761;BME280;33524;55.434;38.520;2023-08-06T01:37:11;100594.03;;;18.86;78.52
47761;BME280;33524;55.434;38.520;2023-08-06T01:39:42;100599.72;;;18.91;75.81
47761;BME280;33524;55.434;38.520;2023-08-06T01:42:11;100594.75;;;18.70;81.88
47761;BME280;33524;55.434;38.520;2023-08-06T01:44:39;100600.91;;;18.70;79.57
47761;BME280;33524;55.434;38.520;2023-08-06T01:47:07;100600.31;;;19.19;73.23
47761;BME280;33524;55.434;38.520;2023-08-06T01:49:35;100592.53;;;19.34;71.28
47761;BME280;33524;55.434;38.520;2023-08-06T01:52:04;100597.06;;;19.50;70.93
47761;BME280;33524;55.434;38.520;2023-08-06T01:54:33;100596.53;;;19.38;73.35
47761;BME280;33524;55.434;38.520;2023-08-06T01:57:00;100608.41;;;19.01;79.75
47761;BME280;33524;55.434;38.520;2023-08-06T01:59:29;100604.28;;;19.07;76.13
47761;BME280;33524;55.434;38.520;2023-08-06T02:01:57;100607.53;;;19.35;71.66
47761;BME280;33524;55.434;38.520;2023-08-06T02:04:25;100605.56;;;19.53;72.10
47761;BME280;33524;55.434;38.520;2023-08-06T02:06:53;100613.47;;;19.12;76.37
47761;BME280;33524;55.434;38.520;2023-08-06T02:09:21;100611.78;;;19.11;75.72
47761;BME280;33524;55.434;38.520;2023-08-06T02:11:49;100615.03;;;19.40;72.04
47761;BME280;33524;55.434;38.520;2023-08-06T02:14:18;100608.22;;;19.37;72.56
47761;BME280;33524;55.434;38.520;2023-08-06T02:16:46;100608.56;;;19.50;70.12
47761;BME280;33524;55.434;38.520;2023-08-06T02:19:14;100612.94;;;19.76;68.86
47761;BME280;33524;55.434;38.520;2023-08-06T02:21:42;100616.63;;;19.75;69.50
47761;BME280;33524;55.434;38.520;2023-08-06T02:24:11;100615.88;;;19.48;73.43
47761;BME280;33524;55.434;38.520;2023-08-06T02:26:39;100614.91;;;19.49;71.06
47761;BME280;33524;55.434;38.520;2023-08-06T02:29:07;100612.91;;;19.60;72.21
47761;BME280;33524;55.434;38.520;2023-08-06T02:31:35;100633.47;;;19.92;68.33
47761;BME280;33524;55.434;38.520;2023-08-06T02:34:05;100624.75;;;19.65;74.33
47761;BME280;33524;55.434;38.520;2023-08-06T02:36:33;100622.06;;;19.57;74.87
47761;BME280;33524;55.434;38.520;2023-08-06T02:39:02;100629.87;;;19.50;72.80
47761;BME280;33524;55.434;38.520;2023-08-06T02:41:30;100640.00;;;19.30;79.70
47761;BME280;33524;55.434;38.520;2023-08-06T02:43:58;100641.03;;;19.38;74.18
47761;BME280;33524;55.434;38.520;2023-08-06T02:46:27;100640.03;;;19.47;74.23
47761;BME280;33524;55.434;38.520;2023-08-06T02:48:55;100633.56;;;19.49;75.78
47761;BME280;33524;55.434;38.520;2023-08-06T02:51:23;100635.91;;;19.61;72.11
47761;BME280;33524;55.434;38.520;2023-08-06T02:53:51;100637.09;;;19.66;71.43
47761;BME280;33524;55.434;38.520;2023-08-06T02:56:20;100637.56;;;19.70;73.06
47761;BME280;33524;55.434;38.520;2023-08-06T02:58:49;100633.97;;;19.95;68.98
47761;BME280;33524;55.434;38.520;2023-08-06T03:01:18;100637.31;;;20.14;68.71
47761;BME280;33524;55.434;38.520;2023-08-06T03:03:50;100636.13;;;20.33;66.30
47761;BME280;33524;55.434;38.520;2023-08-06T03:06:19;100643.78;;;20.44;66.83
47761;BME280;33524;55.434;38.520;2023-08-06T03:08:48;100635.62;;;20.29;71.35
47761;BME280;33524;55.434;38.520;2023-08-06T03:11:16;100632.75;;;20.55;65.08
47761;BME280;33524;55.434;38.520;2023-08-06T03:13:47;100618.88;;;20.52;65.77
47761;BME280;33524;55.434;38.520;2023-08-06T03:16:16;100631.44;;;20.43;74.00
47761;BME280;33524;55.434;38.520;2023-08-06T03:18:44;100636.06;;;20.82;65.80
47761;BME280;33524;55.434;38.520;2023-08-06T03:21:12;100631.84;;;20.96;65.51
47761;BME280;33524;55.434;38.520;2023-08-06T03:23:41;100628.41;;;21.10;63.35
47761;BME280;33524;55.434;38.520;2023-08-06T03:26:09;100633.03;;;21.16;63.60
47761;BME280;33524;55.434;38.520;2023-08-06T03:28:37;100629.78;;;21.37;61.89
47761;BME280;33524;55.434;38.520;2023-08-06T03:31:05;100603.84;;;21.46;60.97
47761;BME280;33524;55.434;38.520;2023-08-06T03:33:35;100630.31;;;21.64;61.26
47761;BME280;33524;55.434;38.520;2023-08-06T03:36:04;100627.69;;;21.79;63.51
47761;BME280;33524;55.434;38.520;2023-08-06T03:38:32;100627.56;;;21.95;59.63
47761;BME280;33524;55.434;38.520;2023-08-06T03:41:02;100628.75;;;22.16;59.95
47761;BME280;33524;55.434;38.520;2023-08-06T03:43:30;100630.66;;;22.30;58.44
47761;BME280;33524;55.434;38.520;2023-08-06T03:45:58;100624.09;;;22.48;57.80
47761;BME280;33524;55.434;38.520;2023-08-06T03:48:27;100629.00;;;22.59;57.82
47761;BME280;33524;55.434;38.520;2023-08-06T03:50:55;100617.81;;;22.70;57.03
47761;BME280;33524;55.434;38.520;2023-08-06T03:53:24;100617.34;;;22.82;57.41
47761;BME280;33524;55.434;38.520;2023-08-06T03:55:53;100618.47;;;23.02;56.84
47761;BME280;33524;55.434;38.520;2023-08-06T03:58:23;100623.25;;;23.22;56.40
47761;BME280;33524;55.434;38.520;2023-08-06T04:01:01;100621.41;;;23.44;55.93
47761;BME280;33524;55.434;38.520;2023-08-06T04:03:30;100617.47;;;23.61;55.03
47761;BME280;33524;55.434;38.520;2023-08-06T04:05:59;100612.53;;;23.80;55.07
47761;BME280;33524;55.434;38.520;2023-08-06T04:08:28;100621.19;;;24.03;54.78
47761;BME280;33524;55.434;38.520;2023-08-06T04:10:56;100607.72;;;24.25;54.48
47761;BME280;33524;55.434;38.520;2023-08-06T04:13:24;100620.97;;;24.54;53.60
47761;BME280;33524;55.434;38.520;2023-08-06T04:15:52;100615.78;;;24.88;53.56
47761;BME280;33524;55.434;38.520;2023-08-06T04:18:21;100605.12;;;25.14;52.84
47761;BME280;33524;55.434;38.520;2023-08-06T04:20:49;100606.66;;;25.30;52.98
47761;BME280;33524;55.434;38.520;2023-08-06T04:23:17;100605.03;;;25.49;52.92
47761;BME280;33524;55.434;38.520;2023-08-06T04:25:46;100601.97;;;25.72;52.20
47761;BME280;33524;55.434;38.520;2023-08-06T04:28:13;100605.12;;;26.03;52.41
47761;BME280;33524;55.434;38.520;2023-08-06T04:30:42;100600.94;;;26.27;51.83
47761;BME280;33524;55.434;38.520;2023-08-06T04:33:10;100600.91;;;26.47;52.09
47761;BME280;33524;55.434;38.520;2023-08-06T04:35:39;100607.53;;;26.71;51.87
47761;BME280;33524;55.434;38.520;2023-08-06T04:38:06;100606.97;;;27.01;51.36
47761;BME280;33524;55.434;38.520;2023-08-06T04:40:35;100605.81;;;27.28;51.12
47761;BME280;33524;55.434;38.520;2023-08-06T04:43:04;100603.19;;;27.53;50.90
47761;BME280;33524;55.434;38.520;2023-08-06T04:45:32;100592.34;;;27.85;50.41
47761;BME280;33524;55.434;38.520;2023-08-06T04:48:00;100599.19;;;28.13;49.85
47761;BME280;33524;55.434;38.520;2023-08-06T04:50:29;100602.25;;;28.42;49.70
47761;BME280;33524;55.434;38.520;2023-08-06T04:52:57;100604.47;;;28.70;49.10
47761;BME280;33524;55.434;38.520;2023-08-06T04:55:25;100599.87;;;28.89;49.58
47761;BME280;33524;55.434;38.520;2023-08-06T04:57:53;100593.16;;;29.10;48.92
47761;BME280;33524;55.434;38.520;2023-08-06T05:00:20;100591.50;;;29.27;48.23
47761;BME280;33524;55.434;38.520;2023-08-06T05:02:49;100586.69;;;29.41;48.70
47761;BME280;33524;55.434;38.520;2023-08-06T05:05:17;100597.72;;;29.70;48.08
47761;BME280;33524;55.434;38.520;2023-08-06T05:07:49;100591.31;;;29.94;48.25
47761;BME280;33524;55.434;38.520;2023-08-06T05:10:17;100589.06;;;30.15;48.20
47761;BME280;33524;55.434;38.520;2023-08-06T05:12:45;100581.06;;;30.32;47.65
47761;BME280;33524;55.434;38.520;2023-08-06T05:15:13;100577.09;;;30.63;47.29
47761;BME280;33524;55.434;38.520;2023-08-06T05:17:42;100578.50;;;30.89;46.81
47761;BME280;33524;55.434;38.520;2023-08-06T05:20:10;100582.66;;;31.09;46.75
47761;BME280;33524;55.434;38.520;2023-08-06T05:22:38;100577.03;;;31.27;46.45
47761;BME280;33524;55.434;38.520;2023-08-06T05:25:07;100577.00;;;31.56;45.52
47761;BME280;33524;55.434;38.520;2023-08-06T05:27:35;100574.78;;;31.87;45.73
47761;BME280;33524;55.434;38.520;2023-08-06T05:30:03;100571.06;;;32.10;45.11
47761;BME280;33524;55.434;38.520;2023-08-06T05:32:32;100572.03;;;32.37;45.11
47761;BME280;33524;55.434;38.520;2023-08-06T05:35:00;100577.75;;;32.58;44.45
47761;BME280;33524;55.434;38.520;2023-08-06T05:37:29;100580.09;;;32.71;44.46
47761;BME280;33524;55.434;38.520;2023-08-06T05:39:58;100577.16;;;32.78;44.60
47761;BME280;33524;55.434;38.520;2023-08-06T05:42:25;100573.78;;;32.93;44.40
47761;BME280;33524;55.434;38.520;2023-08-06T05:45:11;100570.09;;;33.04;44.26
47761;BME280;33524;55.434;38.520;2023-08-06T05:47:39;100577.50;;;33.31;43.85
47761;BME280;33524;55.434;38.520;2023-08-06T05:50:08;100570.75;;;33.39;43.83
47761;BME280;33524;55.434;38.520;2023-08-06T05:52:37;100561.00;;;33.48;43.42
47761;BME280;33524;55.434;38.520;2023-08-06T05:55:05;100559.13;;;33.86;43.13
47761;BME280;33524;55.434;38.520;2023-08-06T05:57:34;100555.81;;;34.21;42.41
47761;BME280;33524;55.434;38.520;2023-08-06T06:00:02;100560.62;;;34.51;41.94
47761;BME280;33524;55.434;38.520;2023-08-06T06:02:39;100557.72;;;34.68;41.71
47761;BME280;33524;55.434;38.520;2023-08-06T06:05:08;100569.66;;;34.62;42.01
47761;BME280;33524;55.434;38.520;2023-08-06T06:07:36;100569.78;;;34.93;41.34
47761;BME280;33524;55.434;38.520;2023-08-06T06:10:04;100560.56;;;35.04;41.34
47761;BME280;33524;55.434;38.520;2023-08-06T06:12:33;100565.22;;;35.24;40.97
47761;BME280;33524;55.434;38.520;2023-08-06T06:15:01;100561.97;;;35.27;41.17
47761;BME280;33524;55.434;38.520;2023-08-06T06:17:31;100567.72;;;35.26;41.12
47761;BME280;33524;55.434;38.520;2023-08-06T06:19:59;100555.44;;;35.69;40.57
47761;BME280;33524;55.434;38.520;2023-08-06T06:22:30;100560.59;;;36.02;39.74
47761;BME280;33524;55.434;38.520;2023-08-06T06:24:58;100555.91;;;36.23;39.40
47761;BME280;33524;55.434;38.520;2023-08-06T06:27:26;100563.31;;;36.17;39.60
47761;BME280;33524;55.434;38.520;2023-08-06T06:29:58;100563.31;;;36.17;39.63
47761;BME280;33524;55.434;38.520;2023-08-06T06:32:31;100560.13;;;36.65;39.02
47761;BME280;33524;55.434;38.520;2023-08-06T06:35:01;100559.75;;;36.87;38.54
47761;BME280;33524;55.434;38.520;2023-08-06T06:37:31;100557.41;;;37.09;38.04
47761;BME280;33524;55.434;38.520;2023-08-06T06:39:59;100555.22;;;37.11;38.04
47761;BME280;33524;55.434;38.520;2023-08-06T06:42:29;100548.56;;;37.23;38.02
47761;BME280;33524;55.434;38.520;2023-08-06T06:45:00;100544.09;;;37.32;37.89
47761;BME280;33524;55.434;38.520;2023-08-06T06:47:30;100542.75;;;37.64;37.53
47761;BME280;33524;55.434;38.520;2023-08-06T06:49:59;100547.16;;;37.89;37.12
47761;BME280;33524;55.434;38.520;2023-08-06T06:52:30;100548.03;;;37.84;36.93
47761;BME280;33524;55.434;38.520;2023-08-06T06:55:04;100541.63;;;37.94;36.91
47761;BME280;33524;55.434;38.520;2023-08-06T06:57:38;100541.53;;;38.28;36.21
47761;BME280;33524;55.434;38.520;2023-08-06T07:00:07;100548.59;;;38.34;36.42
47761;BME280;33524;55.434;38.520;2023-08-06T07:02:37;100544.91;;;38.87;35.86
47761;BME280;33524;55.434;38.520;2023-08-06T07:05:09;100546.25;;;39.09;35.63
47761;BME280;33524;55.434;38.520;2023-08-06T07:07:39;100540.44;;;39.10;35.16
47761;BME280;33524;55.434;38.520;2023-08-06T07:10:10;100543.75;;;39.45;35.00
47761;BME280;33524;55.434;38.520;2023-08-06T07:12:43;100546.75;;;38.54;36.24
47761;BME280;33524;55.434;38.520;2023-08-06T07:15:13;100547.06;;;38.47;36.24
47761;BME280;33524;55.434;38.520;2023-08-06T07:17:42;100548.84;;;39.00;35.61
47761;BME280;33524;55.434;38.520;2023-08-06T07:20:11;100547.06;;;39.09;34.89
47761;BME280;33524;55.434;38.520;2023-08-06T07:22:41;100536.13;;;39.04;35.40
47761;BME280;33524;55.434;38.520;2023-08-06T07:25:13;100536.97;;;39.38;35.11
47761;BME280;33524;55.434;38.520;2023-08-06T07:27:42;100536.88;;;39.10;35.08
47761;BME280;33524;55.434;38.520;2023-08-06T07:30:31;100538.56;;;39.25;35.06
47761;BME280;33524;55.434;38.520;2023-08-06T07:33:02;100533.94;;;39.39;34.89
47761;BME280;33524;55.434;38.520;2023-08-06T07:35:33;100530.47;;;39.14;34.31
47761;BME280;33524;55.434;38.520;2023-08-06T07:38:05;100528.19;;;39.68;34.16
47761;BME280;33524;55.434;38.520;2023-08-06T07:40:51;100529.38;;;39.15;34.97
47761;BME280;33524;55.434;38.520;2023-08-06T07:43:20;100519.28;;;40.04;33.77
47761;BME280;33524;55.434;38.520;2023-08-06T07:45:51;100525.72;;;40.13;32.98
47761;BME280;33524;55.434;38.520;2023-08-06T07:48:21;100522.53;;;40.48;33.12
47761;BME280;33524;55.434;38.520;2023-08-06T07:50:54;100524.47;;;40.47;32.84
47761;BME280;33524;55.434;38.520;2023-08-06T07:53:25;100527.22;;;40.47;33.12
47761;BME280;33524;55.434;38.520;2023-08-06T07:56:08;100523.38;;;40.85;32.92
47761;BME280;33524;55.434;38.520;2023-08-06T07:58:37;100521.69;;;41.43;31.96
47761;BME280;33524;55.434;38.520;2023-08-06T08:01:07;100519.38;;;41.13;31.50
47761;BME280;33524;55.434;38.520;2023-08-06T08:03:38;100527.28;;;41.51;31.93
47761;BME280;33524;55.434;38.520;2023-08-06T08:06:11;100521.69;;;41.43;32.18
47761;BME280;33524;55.434;38.520;2023-08-06T08:08:46;100526.13;;;41.21;32.63
47761;BME280;33524;55.434;38.520;2023-08-06T08:11:16;100522.25;;;41.53;32.04
47761;BME280;33524;55.434;38.520;2023-08-06T08:13:46;100521.91;;;41.24;32.30
47761;BME280;33524;55.434;38.520;2023-08-06T08:16:31;100527.50;;;40.73;33.26
47761;BME280;33524;55.434;38.520;2023-08-06T08:19:20;100520.00;;;40.88;30.42
47761;BME280;33524;55.434;38.520;2023-08-06T08:22:07;100514.09;;;41.03;32.19
47761;BME280;33524;55.434;38.520;2023-08-06T08:24:39;100515.47;;;41.91;31.56
47761;BME280;33524;55.434;38.520;2023-08-06T08:27:10;100512.09;;;40.95;32.83
47761;BME280;33524;55.434;38.520;2023-08-06T08:29:40;100506.22;;;42.44;30.82
47761;BME280;33524;55.434;38.520;2023-08-06T08:32:27;100515.09;;;42.32;30.88
47761;BME280;33524;55.434;38.520;2023-08-06T08:34:57;100502.94;;;43.21;29.73
47761;BME280;33524;55.434;38.520;2023-08-06T08:37:31;100500.66;;;42.79;29.48
47761;BME280;33524;55.434;38.520;2023-08-06T08:40:02;100503.56;;;42.30;31.28
47761;BME280;33524;55.434;38.520;2023-08-06T08:42:32;100500.53;;;42.76;30.64
47761;BME280;33524;55.434;38.520;2023-08-06T08:45:09;100495.63;;;42.81;30.60
47761;BME280;33524;55.434;38.520;2023-08-06T08:47:42;100495.81;;;43.11;30.02
47761;BME280;33524;55.434;38.520;2023-08-06T08:50:22;100491.91;;;42.68;30.61
47761;BME280;33524;55.434;38.520;2023-08-06T08:52:57;100490.88;;;43.34;29.48
47761;BME280;33524;55.434;38.520;2023-08-06T08:55:26;100494.00;;;42.80;30.73
47761;BME280;33524;55.434;38.520;2023-08-06T08:58:01;100492.13;;;43.54;29.83
47761;BME280;33524;55.434;38.520;2023-08-06T09:00:32;100490.78;;;42.87;30.93
47761;BME280;33524;55.434;38.520;2023-08-06T09:03:06;100492.50;;;43.82;28.78
47761;BME280;33524;55.434;38.520;2023-08-06T09:05:43;100484.06;;;43.14;30.21
47761;BME280;33524;55.434;38.520;2023-08-06T09:08:21;100484.25;;;42.91;30.42
47761;BME280;33524;55.434;38.520;2023-08-06T09:10:57;100484.06;;;42.79;26.16
47761;BME280;33524;55.434;38.520;2023-08-06T09:13:27;100487.03;;;43.65;29.37
47761;BME280;33524;55.434;38.520;2023-08-06T09:15:58;100493.00;;;43.20;29.10
47761;BME280;33524;55.434;38.520;2023-08-06T09:18:29;100490.09;;;42.72;30.72
47761;BME280;33524;55.434;38.520;2023-08-06T09:21:19;100497.00;;;41.69;31.69
47761;BME280;33524;55.434;38.520;2023-08-06T09:23:54;100479.72;;;42.61;30.95
47761;BME280;33524;55.434;38.520;2023-08-06T09:26:33;100486.06;;;42.70;28.87
47761;BME280;33524;55.434;38.520;2023-08-06T09:29:09;100465.00;;;43.30;29.83
47761;BME280;33524;55.434;38.520;2023-08-06T09:31:45;100477.13;;;43.55;29.71
47761;BME280;33524;55.434;38.520;2023-08-06T09:36:49;100471.66;;;44.36;28.01
47761;BME280;33524;55.434;38.520;2023-08-06T09:39:32;100473.41;;;44.19;28.53
47761;BME280;33524;55.434;38.520;2023-08-06T09:42:04;100469.00;;;43.88;29.26
47761;BME280;33524;55.434;38.520;2023-08-06T09:44:36;100473.44;;;43.42;29.35
47761;BME280;33524;55.434;38.520;2023-08-06T09:47:08;100474.72;;;41.34;27.40
47761;BME280;33524;55.434;38.520;2023-08-06T09:52:14;100465.41;;;42.67;30.73
47761;BME280;33524;55.434;38.520;2023-08-06T09:54:44;100454.78;;;42.34;27.00
47761;BME280;33524;55.434;38.520;2023-08-06T09:57:15;100451.41;;;42.72;28.17
47761;BME280;33524;55.434;38.520;2023-08-06T09:59:49;100449.72;;;43.15;29.29
47761;BME280;33524;55.434;38.520;2023-08-06T10:02:25;100454.44;;;43.62;28.99
47761;BME280;33524;55.434;38.520;2023-08-06T10:04:57;100449.09;;;43.09;29.96
47761;BME280;33524;55.434;38.520;2023-08-06T10:07:29;100437.88;;;42.97;30.10
47761;BME280;33524;55.434;38.520;2023-08-06T10:10:03;100431.03;;;42.07;30.77
47761;BME280;33524;55.434;38.520;2023-08-06T10:12:40;100433.34;;;43.87;25.59
47761;BME280;33524;55.434;38.520;2023-08-06T10:15:22;100440.25;;;44.86;27.80
47761;BME280;33524;55.434;38.520;2023-08-06T10:17:58;100430.75;;;42.96;29.69
47761;BME280;33524;55.434;38.520;2023-08-06T10:20:35;100424.97;;;43.66;28.55
47761;BME280;33524;55.434;38.520;2023-08-06T10:23:06;100424.06;;;42.97;29.70
47761;BME280;33524;55.434;38.520;2023-08-06T10:25:41;100427.25;;;43.25;29.26
47761;BME280;33524;55.434;38.520;2023-08-06T10:28:37;100417.91;;;42.65;27.92
47761;BME280;33524;55.434;38.520;2023-08-06T10:31:11;100422.12;;;42.71;30.09
47761;BME280;33524;55.434;38.520;2023-08-06T10:33:53;100415.84;;;43.65;29.30
47761;BME280;33524;55.434;38.520;2023-08-06T10:36:27;100424.06;;;42.27;30.68
47761;BME280;33524;55.434;38.520;2023-08-06T10:38:59;100416.41;;;42.42;27.86
47761;BME280;33524;55.434;38.520;2023-08-06T10:41:42;100421.16;;;42.32;31.21
47761;BME280;33524;55.434;38.520;2023-08-06T10:44:17;100415.91;;;43.86;25.31
47761;BME280;33524;55.434;38.520;2023-08-06T10:46:50;100418.22;;;44.68;28.61
47761;BME280;33524;55.434;38.520;2023-08-06T10:49:22;100421.97;;;44.85;28.14
47761;BME280;33524;55.434;38.520;2023-08-06T10:51:59;100413.59;;;44.18;28.64
47761;BME280;33524;55.434;38.520;2023-08-06T10:54:46;100413.22;;;43.99;29.34
47761;BME280;33524;55.434;38.520;2023-08-06T10:57:17;100417.25;;;42.68;30.58
47761;BME280;33524;55.434;38.520;2023-08-06T10:59:46;100416.56;;;42.02;26.05
47761;BME280;33524;55.434;38.520;2023-08-06T11:02:21;100409.00;;;43.63;29.98
47761;BME280;33524;55.434;38.520;2023-08-06T11:04:53;100406.16;;;43.80;26.79
47761;BME280;33524;55.434;38.520;2023-08-06T11:07:31;100405.19;;;42.29;27.00
47761;BME280;33524;55.434;38.520;2023-08-06T11:10:11;100398.34;;;44.66;29.00
47761;BME280;33524;55.434;38.520;2023-08-06T11:12:42;100407.31;;;42.76;27.59
47761;BME280;33524;55.434;38.520;2023-08-06T11:15:12;100409.03;;;41.76;29.21
47761;BME280;33524;55.434;38.520;2023-08-06T11:17:47;100398.56;;;40.34;28.32
47761;BME280;33524;55.434;38.520;2023-08-06T11:20:16;100391.19;;;42.00;29.28
47761;BME280;33524;55.434;38.520;2023-08-06T11:22:50;100392.56;;;41.62;28.02
47761;BME280;33524;55.434;38.520;2023-08-06T11:25:21;100392.03;;;42.09;32.56
47761;BME280;33524;55.434;38.520;2023-08-06T11:27:51;100395.78;;;41.56;26.89
47761;BME280;33524;55.434;38.520;2023-08-06T11:30:20;100411.62;;;40.28;28.57
47761;BME280;33524;55.434;38.520;2023-08-06T11:32:57;100397.03;;;40.64;32.44
47761;BME280;33524;55.434;38.520;2023-08-06T11:35:27;100395.63;;;40.53;33.16
47761;BME280;33524;55.434;38.520;2023-08-06T11:38:01;100391.28;;;39.74;30.70
47761;BME280;33524;55.434;38.520;2023-08-06T11:40:35;100392.22;;;39.42;34.75
47761;BME280;33524;55.434;38.520;2023-08-06T11:43:09;100387.72;;;37.37;32.55
47761;BME280;33524;55.434;38.520;2023-08-06T11:45:39;100391.75;;;39.21;30.86
47761;BME280;33524;55.434;38.520;2023-08-06T11:48:12;100388.63;;;38.62;31.17
47761;BME280;33524;55.434;38.520;2023-08-06T11:50:45;100387.16;;;37.88;31.08
47761;BME280;33524;55.434;38.520;2023-08-06T11:53:17;100389.13;;;37.34;34.68
47761;BME280;33524;55.434;38.520;2023-08-06T11:55:49;100383.66;;;37.83;33.70
47761;BME280;33524;55.434;38.520;2023-08-06T11:58:22;100390.16;;;39.20;36.61
47761;BME280;33524;55.434;38.520;2023-08-06T12:00:51;100379.16;;;38.87;29.47
47761;BME280;33524;55.434;38.520;2023-08-06T12:03:40;100384.50;;;36.66;33.76
47761;BME280;33524;55.434;38.520;2023-08-06T12:06:12;100378.00;;;38.55;37.28
47761;BME280;33524;55.434;38.520;2023-08-06T12:08:44;100378.28;;;36.90;32.82
47761;BME280;33524;55.434;38.520;2023-08-06T12:11:13;100375.97;;;38.04;31.42
47761;BME280;33524;55.434;38.520;2023-08-06T12:13:43;100377.41;;;36.60;33.78
47761;BME280;33524;55.434;38.520;2023-08-06T12:16:14;100371.63;;;37.79;37.21
47761;BME280;33524;55.434;38.520;2023-08-06T12:18:46;100369.13;;;37.05;34.12
47761;BME280;33524;55.434;38.520;2023-08-06T12:21:20;100374.28;;;37.11;34.04
47761;BME280;33524;55.434;38.520;2023-08-06T12:23:56;100369.41;;;37.32;33.10
47761;BME280;33524;55.434;38.520;2023-08-06T12:26:25;100364.72;;;37.57;33.04
47761;BME280;33524;55.434;38.520;2023-08-06T12:29:15;100365.44;;;37.92;31.13
47761;BME280;33524;55.434;38.520;2023-08-06T12:31:45;100361.50;;;37.98;31.98
47761;BME280;33524;55.434;38.520;2023-08-06T12:34:19;100360.03;;;38.44;31.21
47761;BME280;33524;55.434;38.520;2023-08-06T12:36:56;100356.63;;;38.85;30.98
47761;BME280;33524;55.434;38.520;2023-08-06T12:39:31;100345.94;;;39.30;30.13
47761;BME280;33524;55.434;38.520;2023-08-06T12:42:05;100348.06;;;39.74;28.80
47761;BME280;33524;55.434;38.520;2023-08-06T12:44:38;100346.75;;;39.86;29.27
47761;BME280;33524;55.434;38.520;2023-08-06T12:47:11;100348.78;;;39.80;29.48
47761;BME280;33524;55.434;38.520;2023-08-06T12:49:49;100349.41;;;39.49;28.17
47761;BME280;33524;55.434;38.520;2023-08-06T12:52:20;100340.53;;;39.25;28.60
47761;BME280;33524;55.434;38.520;2023-08-06T12:54:50;100342.13;;;39.95;32.16
47761;BME280;33524;55.434;38.520;2023-08-06T12:57:23;100332.78;;;39.68;28.92
47761;BME280;33524;55.434;38.520;2023-08-06T13:00:15;100329.59;;;39.75;28.36
47761;BME280;33524;55.434;38.520;2023-08-06T13:02:47;100330.41;;;39.89;27.90
47761;BME280;33524;55.434;38.520;2023-08-06T13:05:19;100332.66;;;40.38;28.23
47761;BME280;33524;55.434;38.520;2023-08-06T13:07:51;100332.47;;;40.20;27.69